Huvudsida
METAR-TAF:

METAR-TAF

Flygplatser :

Ängelholm-Helsingborg Airport

Helsingborg, Sverige

latitud: 56-17-46N, longitud: 012-50-50E, höjd: 21 m

Aktuellt väderrapport

Denna rapport gjordes för 34 minuter sedan, klockan 12:20 UTC
Vind 22 kt från väst/nordväst
Temperatur 11°C
Fuktighet 66%
Tryck 1023 hPa
Sikt 10 km eller mer
Spridda moln på en höjd av 2800 ft

METAR: ESTA 221220Z 29022KT 9999 SCT028 11/05 Q1023

Tid: 14:54 (12:54 UTC)

Väderprognos

Denna rapport gjordes för 1 timme och 40 minuter sedan, klockan 11:14 UTC
Prognos gäller från 22 kl. 12 UTC till 22 kl. 21 UTC
Vind 22 kt från väst/nordväst
Sikt 10 km eller mer
Spridda moln på en höjd av 3000 ft
Temporärt
från 22 kl. 12 UTC till 22 kl. 18 UTC
Vind 25 kt från väst/nordväst i byarna ända upp till 35 kt

TAF: ESTA 221114Z 2212/2221 29022KT 9999 SCT030 TEMPO 2212/2218 30025G35KT

Aktuella väderrapporter och prognoser från 4000 flygplatser (METAR- och TAF-rapporter).

De tillgängliga stationerna syns som gula och röda prickar på kartan.

För musen över prickarna för att se namnen på stationerna.

Klicka sedan för att få väderrapporter och prognoser.

För att ändra kartan: Klicka på de gröna knapparna med ett svart kors på för att zooma in; den gröna knappen med ett streck på för att zooma ut; eller på de gröna pilarna för angränsande kartor.


METAR-TAF: